Time;durP1;ratioP1;P1;durP2;ratioP2;P2;SDS_P1;SDS_P2;PMS_P1;PMS_P2;Temp;Humidity;BMP_temperature;BMP_pressure;BME280_temperature;BME280_humidity;BME280_pressure;Samples;Min_cycle;Max_cycle;Signal;HPM_P1;HPM_P2
2021/08/05 00:01:37;;;;;;;11.27;10.30;;;;;;;;;;5033223;28;20468;-53
2021/08/05 00:04:04;;;;;;;12.03;11.00;;;;;;;;;;5033233;28;20944;-53
2021/08/05 00:06:32;;;;;;;11.93;10.87;;;;;;;;;;5033379;28;20499;-53
2021/08/05 00:08:59;;;;;;;11.60;10.50;;;;;;;;;;5033166;28;20499;-52
2021/08/05 00:11:26;;;;;;;10.90;9.80;;;;;;;;;;5033179;28;20877;-53
2021/08/05 00:13:53;;;;;;;12.17;10.87;;;;;;;;;;5033132;28;20897;-53
2021/08/05 00:16:21;;;;;;;11.80;10.80;;;;;;;;;;5032885;28;20510;-53
2021/08/05 00:18:49;;;;;;;13.77;12.50;;;;;;;;;;5033089;28;20453;-53
2021/08/05 00:21:17;;;;;;;12.87;11.87;;;;;;;;;;5032824;28;20997;-53
2021/08/05 00:23:44;;;;;;;13.50;12.20;;;;;;;;;;5034582;28;20478;-53
2021/08/05 00:26:11;;;;;;;11.53;10.53;;;;;;;;;;5036889;28;20510;-54
2021/08/05 00:28:39;;;;;;;12.40;11.30;;;;;;;;;;5037160;28;20477;-54
2021/08/05 00:31:06;;;;;;;13.37;12.27;;;;;;;;;;5036731;28;20472;-53
2021/08/05 00:33:33;;;;;;;12.97;11.47;;;;;;;;;;5036656;28;20483;-53
2021/08/05 00:36:02;;;;;;;13.73;12.13;;;;;;;;;;5036828;28;20514;-54
2021/08/05 00:38:29;;;;;;;11.90;10.90;;;;;;;;;;5036950;28;20452;-54
2021/08/05 00:40:57;;;;;;;13.13;11.93;;;;;;;;;;5036603;28;20472;-54
2021/08/05 00:43:24;;;;;;;13.43;12.13;;;;;;;;;;5036850;28;20502;-54
2021/08/05 00:45:51;;;;;;;13.60;12.30;;;;;;;;;;5036711;28;20499;-54
2021/08/05 00:48:18;;;;;;;12.67;11.57;;;;;;;;;;5036834;28;20445;-54
2021/08/05 00:50:46;;;;;;;13.07;11.87;;;;;;;;;;5036727;28;20872;-54
2021/08/05 00:53:15;;;;;;;15.57;14.07;;;;;;;;;;5036422;28;20484;-54
2021/08/05 00:55:42;;;;;;;14.97;13.47;;;;;;;;;;5036749;28;20868;-54
2021/08/05 00:58:10;;;;;;;15.13;13.80;;;;;;;;;;5036723;28;20452;-54
2021/08/05 01:00:37;;;;;;;16.30;14.80;;;;;;;;;;5036259;28;20474;-54
2021/08/05 01:03:06;;;;;;;14.33;12.97;;;;;;;;;;5036326;28;20441;-54
2021/08/05 01:05:37;;;;;;;14.47;13.10;;;;;;;;;;5036579;28;20445;-54
2021/08/05 01:08:07;;;;;;;14.60;13.10;;;;;;;;;;5036133;28;20955;-54
2021/08/05 01:10:40;;;;;;;13.53;12.43;;;;;;;;;;5036346;28;20518;-54
2021/08/05 01:13:08;;;;;;;14.20;12.80;;;;;;;;;;5036429;28;20465;-54
2021/08/05 01:15:36;;;;;;;14.37;13.07;;;;;;;;;;5036021;28;20449;-54
2021/08/05 01:18:06;;;;;;;14.23;13.03;;;;;;;;;;5036262;28;20445;-54
2021/08/05 01:20:34;;;;;;;14.10;12.80;;;;;;;;;;5036133;28;20567;-54
2021/08/05 01:23:04;;;;;;;14.10;12.80;;;;;;;;;;5037222;28;20441;-54
2021/08/05 01:25:35;;;;;;;13.73;12.53;;;;;;;;;;5036127;28;20840;-54
2021/08/05 01:28:04;;;;;;;14.33;12.97;;;;;;;;;;5036142;28;20434;-54
2021/08/05 01:30:32;;;;;;;15.10;13.80;;;;;;;;;;5035951;28;20523;-54
2021/08/05 01:33:00;;;;;;;14.70;13.33;;;;;;;;;;5036369;28;20445;-54
2021/08/05 01:35:28;;;;;;;15.23;13.83;;;;;;;;;;5037836;28;20506;-56
2021/08/05 01:37:56;;;;;;;15.97;14.57;;;;;;;;;;5035961;28;20445;-56
2021/08/05 01:40:24;;;;;;;16.50;14.90;;;;;;;;;;5035825;28;20877;-57
2021/08/05 01:42:52;;;;;;;14.93;13.60;;;;;;;;;;5035452;28;20441;-56
2021/08/05 01:45:20;;;;;;;16.13;14.77;;;;;;;;;;5035776;28;20445;-56
2021/08/05 01:47:48;;;;;;;16.50;14.90;;;;;;;;;;5035495;28;20925;-56
2021/08/05 01:50:15;;;;;;;17.03;15.57;;;;;;;;;;5035740;28;20515;-57
2021/08/05 01:52:43;;;;;;;14.47;13.17;;;;;;;;;;5035650;28;20522;-56
2021/08/05 01:55:11;;;;;;;14.67;13.27;;;;;;;;;;5035475;28;20483;-56
2021/08/05 01:57:39;;;;;;;15.80;14.40;;;;;;;;;;5035226;28;20499;-56
2021/08/05 02:00:07;;;;;;;15.37;13.87;;;;;;;;;;5035414;28;20515;-56
2021/08/05 02:02:36;;;;;;;15.10;13.80;;;;;;;;;;5035378;28;20518;-56
2021/08/05 02:05:05;;;;;;;15.60;14.20;;;;;;;;;;5035444;28;20441;-56
2021/08/05 02:07:34;;;;;;;14.30;13.10;;;;;;;;;;5035401;28;20536;-56
2021/08/05 02:10:03;;;;;;;14.70;13.50;;;;;;;;;;5035441;28;20449;-57
2021/08/05 02:12:32;;;;;;;16.00;14.40;;;;;;;;;;5035705;28;20437;-56
2021/08/05 02:15:00;;;;;;;15.20;14.00;;;;;;;;;;5035749;28;20480;-56
2021/08/05 02:17:27;;;;;;;14.73;13.33;;;;;;;;;;5035577;28;20507;-55
2021/08/05 02:19:56;;;;;;;14.67;13.47;;;;;;;;;;5034997;28;20445;-57
2021/08/05 02:22:24;;;;;;;16.30;14.80;;;;;;;;;;5035234;28;20769;-56
2021/08/05 02:24:51;;;;;;;16.47;14.83;;;;;;;;;;5034702;28;20499;-56
2021/08/05 02:27:18;;;;;;;15.67;14.30;;;;;;;;;;5034666;28;20448;-56
2021/08/05 02:29:46;;;;;;;18.20;16.53;;;;;;;;;;5034871;28;20503;-57
2021/08/05 02:32:13;;;;;;;17.50;15.80;;;;;;;;;;5034906;28;20453;-56
2021/08/05 02:34:40;;;;;;;17.10;15.50;;;;;;;;;;5034489;28;20480;-56
2021/08/05 02:37:09;;;;;;;17.63;15.80;;;;;;;;;;5035129;28;20441;-56
2021/08/05 02:39:36;;;;;;;18.67;16.70;;;;;;;;;;5034576;28;20444;-56
2021/08/05 02:42:04;;;;;;;16.73;15.17;;;;;;;;;;5034673;28;20469;-56
2021/08/05 02:44:32;;;;;;;18.10;16.27;;;;;;;;;;5034710;28;20449;-56
2021/08/05 02:47:00;;;;;;;17.07;15.60;;;;;;;;;;5033595;28;20445;-56
2021/08/05 02:49:29;;;;;;;15.17;13.83;;;;;;;;;;5034633;28;20536;-56
2021/08/05 02:51:57;;;;;;;16.60;15.10;;;;;;;;;;5034496;28;20543;-56
2021/08/05 02:54:26;;;;;;;18.93;17.00;;;;;;;;;;5034202;28;21003;-56
2021/08/05 02:56:53;;;;;;;15.50;14.10;;;;;;;;;;5034693;28;20804;-56
2021/08/05 02:59:20;;;;;;;16.40;14.90;;;;;;;;;;5034518;28;20491;-56
2021/08/05 03:01:48;;;;;;;16.00;14.70;;;;;;;;;;5034283;28;20880;-56
2021/08/05 03:04:15;;;;;;;17.13;15.63;;;;;;;;;;5034501;28;20441;-56
2021/08/05 03:06:44;;;;;;;16.77;15.17;;;;;;;;;;5034026;28;20502;-56
2021/08/05 03:09:11;;;;;;;17.93;16.33;;;;;;;;;;5034350;28;20515;-56
2021/08/05 03:11:39;;;;;;;18.47;16.77;;;;;;;;;;5034172;28;20469;-56
2021/08/05 03:14:08;;;;;;;17.47;15.90;;;;;;;;;;5034092;28;20562;-56
2021/08/05 03:16:35;;;;;;;17.40;15.90;;;;;;;;;;5033968;28;20449;-56
2021/08/05 03:19:02;;;;;;;18.80;17.10;;;;;;;;;;5034151;28;20457;-56
2021/08/05 03:21:29;;;;;;;18.63;16.90;;;;;;;;;;5067897;22;20602;-55
2021/08/05 03:23:57;;;;;;;17.90;16.30;;;;;;;;;;5053585;28;20439;-55
2021/08/05 03:26:24;;;;;;;18.10;16.50;;;;;;;;;;5053848;28;20501;-55
2021/08/05 03:28:52;;;;;;;19.23;17.47;;;;;;;;;;5053802;28;20498;-55
2021/08/05 03:31:20;;;;;;;17.80;16.20;;;;;;;;;;5053640;28;20463;-55
2021/08/05 03:33:47;;;;;;;17.90;16.30;;;;;;;;;;5053693;28;20484;-55
2021/08/05 03:36:14;;;;;;;18.17;16.57;;;;;;;;;;5053391;28;20502;-55
2021/08/05 03:38:41;;;;;;;17.50;15.90;;;;;;;;;;5054432;28;20502;-55
2021/08/05 03:41:09;;;;;;;18.10;16.40;;;;;;;;;;5053332;28;20460;-55
2021/08/05 03:43:36;;;;;;;18.90;17.23;;;;;;;;;;5053398;28;20900;-55
2021/08/05 03:46:05;;;;;;;18.10;16.20;;;;;;;;;;5053719;28;20440;-55
2021/08/05 03:48:32;;;;;;;17.43;15.80;;;;;;;;;;5053619;28;20448;-56
2021/08/05 03:50:59;;;;;;;17.57;15.97;;;;;;;;;;5053495;28;20467;-55
2021/08/05 03:53:26;;;;;;;17.97;16.17;;;;;;;;;;5053119;28;20990;-55
2021/08/05 03:55:54;;;;;;;17.47;15.93;;;;;;;;;;5053471;28;20485;-55
2021/08/05 03:58:21;;;;;;;16.90;15.40;;;;;;;;;;5053137;28;20448;-55
2021/08/05 04:00:48;;;;;;;16.80;15.40;;;;;;;;;;5053071;28;20522;-54
2021/08/05 04:03:17;;;;;;;18.47;16.80;;;;;;;;;;5053292;28;20448;-55
2021/08/05 04:08:24;;;;;;;17.80;16.23;;;;;;;;;;5091589;27;21036;-54
2021/08/05 04:10:52;;;;;;;17.10;15.70;;;;;;;;;;5090841;28;20527;-54
2021/08/05 04:13:19;;;;;;;16.23;14.83;;;;;;;;;;5090414;28;20495;-55
2021/08/05 04:15:46;;;;;;;16.60;14.83;;;;;;;;;;5090527;28;20503;-55
2021/08/05 04:18:14;;;;;;;16.87;15.47;;;;;;;;;;5090754;28;20446;-55
2021/08/05 04:20:41;;;;;;;16.83;15.43;;;;;;;;;;5090376;28;20466;-54
2021/08/05 04:23:08;;;;;;;16.30;14.80;;;;;;;;;;5090768;28;20438;-55
2021/08/05 04:25:37;;;;;;;16.70;15.10;;;;;;;;;;5090277;28;20621;-56
2021/08/05 04:28:04;;;;;;;18.97;16.10;;;;;;;;;;5090390;28;20527;-55
2021/08/05 04:30:32;;;;;;;17.27;15.83;;;;;;;;;;5090488;28;20792;-55
2021/08/05 04:32:59;;;;;;;16.23;14.83;;;;;;;;;;5090836;28;20443;-57
2021/08/05 04:35:26;;;;;;;17.10;15.50;;;;;;;;;;5090166;28;20537;-55
2021/08/05 04:37:54;;;;;;;15.90;14.50;;;;;;;;;;5090531;28;20492;-52
2021/08/05 04:40:21;;;;;;;15.27;13.97;;;;;;;;;;5090368;28;20446;-56
2021/08/05 04:42:50;;;;;;;15.03;13.73;;;;;;;;;;5090113;28;20511;-55
2021/08/05 04:45:18;;;;;;;16.23;14.83;;;;;;;;;;5090214;28;20443;-55
2021/08/05 04:47:52;;;;;;;16.87;15.37;;;;;;;;;;5091075;28;20474;-55
2021/08/05 04:50:19;;;;;;;16.03;14.73;;;;;;;;;;5090056;28;20507;-55
2021/08/05 04:52:46;;;;;;;16.40;15.00;;;;;;;;;;5090258;28;20886;-55
2021/08/05 04:55:14;;;;;;;15.90;14.30;;;;;;;;;;5089677;28;20946;-56
2021/08/05 04:57:47;;;;;;;15.70;14.20;;;;;;;;;;5089801;28;20492;-57
2021/08/05 05:00:15;;;;;;;15.43;14.13;;;;;;;;;;5089609;28;20485;-55
2021/08/05 05:02:43;;;;;;;16.40;14.93;;;;;;;;;;5089513;28;20446;-54
2021/08/05 05:05:10;;;;;;;15.07;13.73;;;;;;;;;;5089920;28;20443;-53
2021/08/05 05:07:37;;;;;;;17.03;15.50;;;;;;;;;;5089299;28;20482;-55
2021/08/05 05:10:05;;;;;;;17.50;16.03;;;;;;;;;;5089410;28;20446;-56
2021/08/05 05:12:32;;;;;;;15.13;13.83;;;;;;;;;;5089256;28;20466;-52
2021/08/05 05:14:59;;;;;;;16.20;14.77;;;;;;;;;;5089509;28;20457;-55
2021/08/05 05:17:28;;;;;;;15.03;13.63;;;;;;;;;;5089561;28;20442;-55
2021/08/05 05:19:55;;;;;;;16.57;14.97;;;;;;;;;;5075452;28;20520;-54
2021/08/05 05:22:23;;;;;;;15.33;13.90;;;;;;;;;;5075917;28;20467;-55
2021/08/05 05:24:50;;;;;;;16.27;14.70;;;;;;;;;;5075591;28;20501;-55
2021/08/05 05:27:17;;;;;;;17.93;14.70;;;;;;;;;;5075792;28;20479;-56
2021/08/05 05:29:45;;;;;;;16.53;15.17;;;;;;;;;;5075458;28;20497;-55
2021/08/05 05:32:12;;;;;;;16.90;15.17;;;;;;;;;;5076049;28;20470;-55
2021/08/05 05:34:41;;;;;;;15.63;14.10;;;;;;;;;;5075626;28;20543;-55
2021/08/05 05:37:08;;;;;;;15.13;13.43;;;;;;;;;;5075782;28;20440;-55
2021/08/05 05:39:35;;;;;;;16.20;14.60;;;;;;;;;;5075845;28;20490;-55
2021/08/05 05:42:03;;;;;;;15.77;13.83;;;;;;;;;;5075784;28;20471;-56
2021/08/05 05:44:30;;;;;;;16.10;14.40;;;;;;;;;;5075824;28;20454;-55
2021/08/05 05:46:58;;;;;;;16.27;14.60;;;;;;;;;;5075731;28;20990;-55
2021/08/05 05:49:26;;;;;;;14.50;13.30;;;;;;;;;;5075802;28;20860;-56
2021/08/05 05:51:54;;;;;;;14.27;12.87;;;;;;;;;;5076496;28;20826;-56
2021/08/05 05:54:22;;;;;;;15.50;14.10;;;;;;;;;;5076185;28;20542;-56
2021/08/05 05:56:49;;;;;;;14.37;13.17;;;;;;;;;;5075165;28;20911;-58
2021/08/05 05:59:16;;;;;;;14.13;12.80;;;;;;;;;;5074904;28;20439;-56
2021/08/05 06:01:43;;;;;;;14.27;12.87;;;;;;;;;;5075218;28;20830;-55
2021/08/05 06:04:11;;;;;;;13.07;11.87;;;;;;;;;;5075014;28;20951;-55
2021/08/05 06:06:38;;;;;;;14.33;13.00;;;;;;;;;;5074585;28;20455;-56
2021/08/05 06:09:07;;;;;;;13.73;12.07;;;;;;;;;;5074991;28;20501;-57
2021/08/05 06:11:34;;;;;;;13.10;11.80;;;;;;;;;;5074695;28;20490;-56
2021/08/05 06:14:01;;;;;;;14.50;13.20;;;;;;;;;;5074463;28;20497;-56
2021/08/05 06:16:28;;;;;;;13.47;12.27;;;;;;;;;;5074466;28;20456;-55
2021/08/05 06:18:56;;;;;;;12.87;11.70;;;;;;;;;;5074785;28;20493;-56
2021/08/05 06:21:24;;;;;;;14.00;12.70;;;;;;;;;;5074624;28;20467;-57
2021/08/05 06:23:51;;;;;;;13.83;12.57;;;;;;;;;;5074505;28;20501;-55
2021/08/05 06:26:22;;;;;;;13.50;11.73;;;;;;;;;;5074485;28;20493;-55
2021/08/05 06:28:49;;;;;;;13.60;12.50;;;;;;;;;;5074507;28;20546;-56
2021/08/05 06:31:18;;;;;;;13.60;12.30;;;;;;;;;;5073493;28;20516;-56
2021/08/05 06:33:47;;;;;;;14.40;13.07;;;;;;;;;;5075331;28;20524;-56
2021/08/05 06:36:14;;;;;;;13.87;12.53;;;;;;;;;;5074234;28;20450;-56
2021/08/05 06:38:41;;;;;;;13.70;12.50;;;;;;;;;;5074502;28;20497;-56
2021/08/05 06:41:09;;;;;;;14.17;12.57;;;;;;;;;;5073855;28;20878;-55
2021/08/05 06:43:37;;;;;;;12.73;11.63;;;;;;;;;;5073769;28;20455;-55
2021/08/05 06:46:05;;;;;;;12.80;11.50;;;;;;;;;;5074156;28;20508;-55
2021/08/05 06:48:32;;;;;;;12.70;11.60;;;;;;;;;;5074181;28;20475;-56
2021/08/05 06:50:59;;;;;;;13.83;12.63;;;;;;;;;;5074148;28;20471;-55
2021/08/05 06:53:26;;;;;;;12.93;11.63;;;;;;;;;;5073797;28;20851;-55
2021/08/05 06:55:54;;;;;;;12.73;11.53;;;;;;;;;;5073606;28;20447;-55
2021/08/05 06:58:22;;;;;;;12.83;11.63;;;;;;;;;;5073995;28;20561;-55
2021/08/05 07:00:51;;;;;;;12.97;11.80;;;;;;;;;;5073620;28;20471;-55
2021/08/05 07:03:18;;;;;;;13.27;11.97;;;;;;;;;;5073998;28;20459;-56
2021/08/05 07:05:45;;;;;;;11.57;10.60;;;;;;;;;;5073639;28;20939;-55
2021/08/05 07:08:12;;;;;;;12.50;11.30;;;;;;;;;;5073329;28;20487;-55
2021/08/05 07:10:40;;;;;;;21.27;12.17;;;;;;;;;;5073337;28;20467;-56
2021/08/05 07:13:07;;;;;;;13.10;11.80;;;;;;;;;;5073811;28;20447;-56
2021/08/05 07:15:34;;;;;;;13.30;12.10;;;;;;;;;;5073397;28;20939;-56
2021/08/05 07:18:03;;;;;;;13.07;11.90;;;;;;;;;;5073646;28;20519;-55
2021/08/05 07:20:30;;;;;;;13.10;11.77;;;;;;;;;;5073444;28;20931;-57
2021/08/05 07:22:58;;;;;;;13.10;11.57;;;;;;;;;;5073512;28;20443;-56
2021/08/05 07:25:25;;;;;;;13.50;11.33;;;;;;;;;;5073763;28;20486;-56
2021/08/05 07:27:52;;;;;;;11.93;11.00;;;;;;;;;;5073353;28;20887;-57
2021/08/05 07:30:20;;;;;;;13.00;11.70;;;;;;;;;;5073134;28;20455;-56
2021/08/05 07:32:49;;;;;;;12.90;11.70;;;;;;;;;;5073558;28;20486;-55
2021/08/05 07:35:18;;;;;;;12.73;11.63;;;;;;;;;;5073203;28;20447;-54
2021/08/05 07:37:45;;;;;;;13.10;12.10;;;;;;;;;;5073298;28;20439;-56
2021/08/05 07:40:13;;;;;;;13.20;12.03;;;;;;;;;;5073246;28;20520;-55
2021/08/05 07:42:40;;;;;;;12.43;11.27;;;;;;;;;;5072679;28;20528;-56
2021/08/05 07:45:08;;;;;;;12.57;11.50;;;;;;;;;;5073348;28;20451;-55
2021/08/05 07:47:35;;;;;;;12.07;11.07;;;;;;;;;;5072875;28;21014;-55
2021/08/05 07:50:02;;;;;;;14.00;11.20;;;;;;;;;;5072817;28;20439;-56
2021/08/05 07:52:31;;;;;;;12.40;11.40;;;;;;;;;;5072973;28;20473;-57
2021/08/05 07:55:03;;;;;;;12.47;11.37;;;;;;;;;;5073089;28;20496;-56
2021/08/05 07:57:31;;;;;;;14.13;12.10;;;;;;;;;;5072712;28;20514;-57
2021/08/05 07:59:59;;;;;;;13.00;11.57;;;;;;;;;;5073078;28;20447;-56
2021/08/05 08:02:26;;;;;;;13.00;11.90;;;;;;;;;;5072669;28;20525;-54
2021/08/05 08:04:54;;;;;;;13.17;12.07;;;;;;;;;;5072654;28;20443;-56
2021/08/05 08:07:21;;;;;;;12.63;11.60;;;;;;;;;;5072335;28;20451;-55
2021/08/05 08:09:50;;;;;;;12.47;11.33;;;;;;;;;;5072767;28;20439;-55
2021/08/05 08:12:17;;;;;;;13.10;11.90;;;;;;;;;;5073250;28;20886;-57
2021/08/05 08:14:44;;;;;;;12.57;11.37;;;;;;;;;;5072843;28;20447;-55
2021/08/05 08:17:11;;;;;;;14.30;12.97;;;;;;;;;;5072955;28;20492;-55
2021/08/05 08:19:39;;;;;;;13.57;12.40;;;;;;;;;;5072791;28;20451;-55
2021/08/05 08:22:07;;;;;;;14.13;12.83;;;;;;;;;;5072208;28;20546;-53
2021/08/05 08:24:34;;;;;;;15.30;13.77;;;;;;;;;;5073029;28;20471;-56
2021/08/05 08:27:03;;;;;;;14.43;13.07;;;;;;;;;;5072918;28;20496;-56
2021/08/05 08:29:30;;;;;;;14.07;12.83;;;;;;;;;;5072996;28;20479;-55
2021/08/05 08:31:58;;;;;;;13.30;11.90;;;;;;;;;;5072628;28;20473;-56
2021/08/05 08:34:25;;;;;;;13.33;12.00;;;;;;;;;;5072690;28;20516;-55
2021/08/05 08:36:52;;;;;;;13.67;12.23;;;;;;;;;;5072610;28;20443;-55
2021/08/05 08:39:22;;;;;;;13.97;12.77;;;;;;;;;;5072812;28;20447;-55
2021/08/05 08:41:49;;;;;;;13.90;12.70;;;;;;;;;;5072232;28;20840;-55
2021/08/05 08:44:18;;;;;;;13.03;11.83;;;;;;;;;;5072457;28;20450;-55
2021/08/05 08:46:47;;;;;;;13.80;12.60;;;;;;;;;;5072677;28;20447;-56
2021/08/05 08:49:15;;;;;;;14.07;12.77;;;;;;;;;;5072462;28;20480;-56
2021/08/05 08:51:46;;;;;;;14.03;12.63;;;;;;;;;;5072243;28;20467;-55
2021/08/05 08:54:14;;;;;;;14.37;12.97;;;;;;;;;;5074863;28;20432;-56
2021/08/05 08:56:41;;;;;;;14.00;12.83;;;;;;;;;;5076152;28;20447;-55
2021/08/05 08:59:08;;;;;;;15.17;13.87;;;;;;;;;;5077066;28;20440;-57
2021/08/05 09:01:39;;;;;;;15.43;14.10;;;;;;;;;;5075771;28;20976;-56
2021/08/05 09:04:07;;;;;;;14.30;12.90;;;;;;;;;;5076112;28;20901;-56
2021/08/05 09:06:35;;;;;;;16.27;14.63;;;;;;;;;;5075940;28;20495;-55
2021/08/05 09:09:02;;;;;;;15.90;13.30;;;;;;;;;;5075984;28;20561;-54
2021/08/05 09:11:29;;;;;;;14.83;13.43;;;;;;;;;;5075838;28;20481;-55
2021/08/05 09:13:56;;;;;;;14.27;12.87;;;;;;;;;;5075515;28;20960;-55
2021/08/05 09:16:25;;;;;;;15.03;13.73;;;;;;;;;;5075632;28;20507;-55
2021/08/05 09:18:54;;;;;;;14.20;12.80;;;;;;;;;;5076159;28;20547;-55
2021/08/05 09:21:22;;;;;;;14.60;12.70;;;;;;;;;;5091934;22;20491;-59
2021/08/05 09:23:50;;;;;;;14.93;13.63;;;;;;;;;;5036047;28;20941;-59
2021/08/05 09:26:39;;;;;;;14.60;13.30;;;;;;;;;;5036151;28;20444;-58
2021/08/05 09:29:08;;;;;;;15.23;14.03;;;;;;;;;;5031167;28;20480;-59
2021/08/05 09:31:36;;;;;;;16.03;14.60;;;;;;;;;;5035867;28;20465;-59
2021/08/05 09:34:06;;;;;;;15.10;13.80;;;;;;;;;;5035810;28;20452;-58
2021/08/05 09:36:33;;;;;;;13.90;12.70;;;;;;;;;;5035437;28;20499;-59
2021/08/05 09:39:00;;;;;;;13.80;12.60;;;;;;;;;;5035399;28;20507;-58
2021/08/05 09:41:28;;;;;;;15.60;14.10;;;;;;;;;;5035359;28;20973;-58
2021/08/05 09:44:02;;;;;;;13.63;12.47;;;;;;;;;;5035487;28;20443;-59
2021/08/05 09:46:30;;;;;;;14.70;13.20;;;;;;;;;;5038806;28;20455;-59
2021/08/05 09:48:57;;;;;;;13.03;11.90;;;;;;;;;;5043886;28;20491;-58
2021/08/05 09:51:26;;;;;;;13.33;12.20;;;;;;;;;;5039589;28;20821;-59
2021/08/05 09:54:03;;;;;;;13.67;12.37;;;;;;;;;;5038063;28;20449;-59
2021/08/05 09:56:32;;;;;;;14.70;13.50;;;;;;;;;;5037336;28;20985;-59
2021/08/05 09:59:05;;;;;;;14.60;13.33;;;;;;;;;;5036258;28;20452;-59
2021/08/05 10:01:33;;;;;;;14.30;13.20;;;;;;;;;;5035658;28;20474;-58
2021/08/05 10:04:00;;;;;;;13.27;12.00;;;;;;;;;;5034906;28;20449;-59
2021/08/05 10:06:28;;;;;;;13.10;12.03;;;;;;;;;;5035438;28;20472;-57
2021/08/05 10:08:56;;;;;;;13.80;12.70;;;;;;;;;;5034883;28;20552;-58
2021/08/05 10:11:37;;;;;;;14.27;13.07;;;;;;;;;;5034524;28;20979;-59
2021/08/05 10:14:20;;;;;;;22.67;13.50;;;;;;;;;;5034867;28;20529;-59
2021/08/05 10:16:49;;;;;;;13.47;12.37;;;;;;;;;;5034901;28;20436;-58
2021/08/05 10:19:18;;;;;;;14.10;12.90;;;;;;;;;;5035208;28;20480;-59
2021/08/05 10:21:48;;;;;;;13.60;12.50;;;;;;;;;;5034571;28;20474;-59
2021/08/05 10:24:15;;;;;;;12.70;11.53;;;;;;;;;;5034952;28;20508;-59
2021/08/05 10:26:43;;;;;;;11.67;10.50;;;;;;;;;;5034780;28;20448;-58
2021/08/05 10:29:11;;;;;;;11.13;10.30;;;;;;;;;;5034394;28;20481;-59
2021/08/05 10:31:40;;;;;;;12.60;11.40;;;;;;;;;;5034083;28;20526;-58
2021/08/05 10:34:08;;;;;;;13.87;12.57;;;;;;;;;;5034834;28;20489;-59
2021/08/05 10:36:35;;;;;;;11.90;10.90;;;;;;;;;;5035004;28;20449;-56
2021/08/05 10:39:04;;;;;;;12.13;11.13;;;;;;;;;;5035664;28;20510;-58
2021/08/05 10:41:31;;;;;;;13.10;12.00;;;;;;;;;;5038674;28;20498;-58
2021/08/05 10:43:59;;;;;;;13.03;11.73;;;;;;;;;;5040548;28;20476;-58
2021/08/05 10:46:33;;;;;;;14.00;12.90;;;;;;;;;;5038594;28;20439;-59
2021/08/05 10:49:00;;;;;;;14.20;12.90;;;;;;;;;;5038236;28;20960;-58
2021/08/05 10:51:27;;;;;;;15.10;13.93;;;;;;;;;;5036237;28;20466;-58
2021/08/05 10:53:55;;;;;;;14.90;13.70;;;;;;;;;;5034983;28;20519;-58
2021/08/05 10:56:25;;;;;;;16.57;15.07;;;;;;;;;;5035047;28;20511;-58
2021/08/05 10:59:09;;;;;;;16.77;15.13;;;;;;;;;;5034758;28;20445;-58
2021/08/05 11:01:54;;;;;;;17.03;15.60;;;;;;;;;;5034649;28;20465;-57
2021/08/05 11:04:40;;;;;;;16.33;14.93;;;;;;;;;;5034848;28;20488;-58
2021/08/05 11:07:26;;;;;;;14.67;13.43;;;;;;;;;;5034339;28;20444;-57
2021/08/05 11:10:14;;;;;;;15.23;13.93;;;;;;;;;;5034056;28;20473;-59
2021/08/05 11:12:44;;;;;;;16.63;15.33;;;;;;;;;;5033766;28;20474;-58
2021/08/05 11:15:31;;;;;;;16.37;15.07;;;;;;;;;;5033791;28;20436;-59
2021/08/05 11:18:18;;;;;;;17.67;15.90;;;;;;;;;;5033952;28;20451;-58
2021/08/05 11:20:46;;;;;;;19.53;17.70;;;;;;;;;;5034016;28;20946;-57
2021/08/05 11:23:29;;;;;;;18.00;16.53;;;;;;;;;;5033170;28;21041;-58
2021/08/05 11:26:03;;;;;;;18.43;16.83;;;;;;;;;;5033249;28;20455;-58
2021/08/05 11:28:32;;;;;;;17.90;16.40;;;;;;;;;;5033037;28;20448;-56
2021/08/05 11:31:01;;;;;;;18.70;17.10;;;;;;;;;;5033543;28;20448;-58
2021/08/05 11:33:49;;;;;;;17.57;16.17;;;;;;;;;;5033776;28;20450;-59
2021/08/05 11:36:21;;;;;;;19.47;17.87;;;;;;;;;;5033772;28;20462;-58
2021/08/05 11:38:59;;;;;;;19.83;18.33;;;;;;;;;;5033917;28;20450;-59
2021/08/05 11:41:43;;;;;;;20.63;19.10;;;;;;;;;;5033655;28;20566;-59
2021/08/05 11:44:34;;;;;;;20.20;18.50;;;;;;;;;;5033571;28;20819;-59
2021/08/05 11:47:13;;;;;;;17.70;16.30;;;;;;;;;;5018253;28;20504;-59
2021/08/05 11:49:41;;;;;;;18.80;17.40;;;;;;;;;;5032935;28;20487;-59
2021/08/05 11:52:09;;;;;;;19.07;17.57;;;;;;;;;;5033128;28;20530;-58
2021/08/05 11:54:36;;;;;;;19.67;18.17;;;;;;;;;;5033091;28;20449;-58
2021/08/05 11:57:04;;;;;;;20.10;18.40;;;;;;;;;;5032769;28;20798;-59
2021/08/05 11:59:39;;;;;;;19.53;17.83;;;;;;;;;;5033373;28;20463;-59
2021/08/05 12:02:07;;;;;;;17.93;16.63;;;;;;;;;;5032861;28;20470;-57
2021/08/05 12:04:35;;;;;;;20.43;18.70;;;;;;;;;;5033211;28;20506;-58
2021/08/05 12:07:22;;;;;;;19.60;18.10;;;;;;;;;;5033420;28;20844;-57
2021/08/05 12:09:50;;;;;;;20.83;19.10;;;;;;;;;;5032938;28;20521;-57
2021/08/05 12:12:17;;;;;;;22.30;20.50;;;;;;;;;;5033644;28;20468;-58
2021/08/05 12:14:48;;;;;;;20.23;18.73;;;;;;;;;;5032855;28;20964;-59
2021/08/05 12:17:15;;;;;;;20.60;19.10;;;;;;;;;;5033281;28;20878;-59
2021/08/05 12:19:51;;;;;;;24.50;20.73;;;;;;;;;;5033176;28;20508;-58
2021/08/05 12:22:18;;;;;;;20.73;19.23;;;;;;;;;;5032783;28;20543;-58
2021/08/05 12:24:50;;;;;;;20.27;18.47;;;;;;;;;;5033332;28;20441;-57
2021/08/05 12:27:19;;;;;;;19.70;17.90;;;;;;;;;;5033225;28;20529;-58
2021/08/05 12:30:06;;;;;;;19.00;17.60;;;;;;;;;;5036794;28;20510;-58
2021/08/05 12:32:33;;;;;;;18.53;17.03;;;;;;;;;;5051523;28;20477;-60
2021/08/05 12:35:02;;;;;;;15.90;14.47;;;;;;;;;;5052938;28;20458;-59
2021/08/05 12:37:29;;;;;;;14.40;13.33;;;;;;;;;;5051213;28;20511;-59
2021/08/05 12:40:08;;;;;;;12.10;11.20;;;;;;;;;;5044007;28;20449;-58
2021/08/05 12:42:36;;;;;;;12.43;11.43;;;;;;;;;;5039603;28;20549;-58
2021/08/05 12:45:04;;;;;;;11.60;10.53;;;;;;;;;;5036685;28;20453;-58
2021/08/05 12:47:31;;;;;;;11.30;10.40;;;;;;;;;;5036273;28;20450;-58
2021/08/05 12:50:03;;;;;;;12.97;12.07;;;;;;;;;;5036246;28;20550;-58
2021/08/05 12:52:40;;;;;;;13.80;12.73;;;;;;;;;;5035938;28;20976;-58
2021/08/05 12:55:08;;;;;;;16.00;14.70;;;;;;;;;;5036235;28;20427;-58
2021/08/05 12:57:37;;;;;;;11.37;10.37;;;;;;;;;;5036384;28;20531;-58
2021/08/05 13:00:06;;;;;;;11.63;10.70;;;;;;;;;;5036303;28;20949;-57
2021/08/05 13:02:33;;;;;;;12.07;11.20;;;;;;;;;;5036055;28;20500;-56
2021/08/05 13:05:09;;;;;;;13.77;12.67;;;;;;;;;;5035916;28;20968;-59
2021/08/05 13:07:42;;;;;;;13.83;12.83;;;;;;;;;;5036123;28;20434;-57
2021/08/05 13:10:10;;;;;;;11.70;10.70;;;;;;;;;;5035787;28;20519;-57
2021/08/05 13:12:47;;;;;;;9.60;9.00;;;;;;;;;;5035944;28;20581;-57
2021/08/05 13:15:31;;;;;;;8.03;7.43;;;;;;;;;;5036106;28;20433;-56
2021/08/05 13:18:00;;;;;;;6.37;5.87;;;;;;;;;;5036000;28;20503;-58
2021/08/05 13:20:28;;;;;;;6.53;6.03;;;;;;;;;;5035909;28;21013;-57
2021/08/05 13:22:58;;;;;;;6.30;5.80;;;;;;;;;;5035432;28;20507;-59
2021/08/05 13:25:26;;;;;;;6.67;6.07;;;;;;;;;;5035769;28;20789;-58
2021/08/05 13:28:10;;;;;;;6.80;6.30;;;;;;;;;;5035913;28;20965;-59
2021/08/05 13:30:37;;;;;;;6.87;6.17;;;;;;;;;;5036464;28;20533;-59
2021/08/05 13:33:16;;;;;;;8.70;8.00;;;;;;;;;;5035743;28;21017;-59
2021/08/05 13:35:47;;;;;;;11.33;10.30;;;;;;;;;;5036265;28;20437;-58
2021/08/05 13:38:15;;;;;;;15.30;12.47;;;;;;;;;;5035688;28;20481;-58
2021/08/05 13:40:43;;;;;;;12.80;11.70;;;;;;;;;;5034870;28;20452;-59
2021/08/05 13:43:12;;;;;;;14.73;13.53;;;;;;;;;;5035517;28;20465;-58
2021/08/05 13:45:40;;;;;;;11.63;10.53;;;;;;;;;;5035380;28;20446;-58
2021/08/05 13:48:07;;;;;;;11.70;10.80;;;;;;;;;;5035057;28;20490;-57
2021/08/05 13:50:34;;;;;;;11.10;10.00;;;;;;;;;;5034720;28;20533;-58
2021/08/05 13:53:02;;;;;;;11.97;10.97;;;;;;;;;;5035297;28;20479;-59
2021/08/05 13:55:32;;;;;;;11.70;10.63;;;;;;;;;;5035257;28;20454;-59
2021/08/05 13:57:59;;;;;;;14.20;12.90;;;;;;;;;;5035190;28;20495;-58
2021/08/05 14:00:28;;;;;;;14.93;13.73;;;;;;;;;;5034937;28;20500;-59
2021/08/05 14:02:55;;;;;;;15.57;14.07;;;;;;;;;;5035050;28;20564;-58
2021/08/05 14:05:22;;;;;;;17.50;15.90;;;;;;;;;;5034764;28;20449;-58
2021/08/05 14:07:51;;;;;;;16.93;15.40;;;;;;;;;;5034548;28;20597;-56
2021/08/05 14:10:19;;;;;;;17.90;16.10;;;;;;;;;;5034581;28;20477;-60
2021/08/05 14:12:48;;;;;;;18.40;16.67;;;;;;;;;;5034577;28;20464;-59
2021/08/05 14:15:16;;;;;;;15.40;14.10;;;;;;;;;;5034317;28;20510;-59
2021/08/05 14:17:44;;;;;;;15.77;14.47;;;;;;;;;;5034898;28;20489;-57
2021/08/05 14:20:12;;;;;;;15.57;14.33;;;;;;;;;;5034609;28;20436;-59
2021/08/05 14:22:39;;;;;;;14.77;13.37;;;;;;;;;;5034374;28;20473;-58
2021/08/05 14:25:07;;;;;;;13.37;12.37;;;;;;;;;;5034682;28;20449;-58
2021/08/05 14:27:34;;;;;;;10.70;10.00;;;;;;;;;;5034633;28;20441;-58
2021/08/05 14:30:03;;;;;;;10.17;9.33;;;;;;;;;;5034321;28;20512;-58
2021/08/05 14:32:31;;;;;;;10.50;9.70;;;;;;;;;;5034291;28;20461;-58